createdAt,value
2023-01-01T00:05:03.678Z,188.33
2023-01-01T00:10:12.783Z,195.88
2023-01-01T00:15:21.237Z,192.51
2023-01-01T00:20:34.969Z,188.96
2023-01-01T00:25:38.516Z,152.16
2023-01-01T00:30:47.511Z,195.85
2023-01-01T00:35:56.253Z,148.82
2023-01-01T00:41:05.053Z,145.08
2023-01-01T00:46:13.572Z,164.32
2023-01-01T00:51:22.173Z,159.63
2023-01-01T00:56:30.692Z,152.59
2023-01-01T01:01:39.426Z,159.36
2023-01-01T01:06:48.113Z,166.75
2023-01-01T01:12:18.063Z,166.09
2023-01-01T01:17:05.528Z,157.13
2023-01-01T01:22:14.496Z,188.37
2023-01-01T01:27:22.696Z,183.66
2023-01-01T01:32:32.257Z,151.73
2023-01-01T01:37:40.922Z,162.23
2023-01-01T01:42:49.706Z,137.38
2023-01-01T01:47:58.208Z,150.41
2023-01-01T01:53:06.838Z,142.63
2023-01-01T01:58:15.059Z,156.03
2023-01-01T02:03:23.955Z,139.18
2023-01-01T02:08:32.564Z,129.80
2023-01-01T02:13:41.172Z,109.34
2023-01-01T02:18:49.516Z,104.15
2023-01-01T02:23:58.973Z,111.76
2023-01-01T02:29:07.452Z,178.03
2023-01-01T02:34:16.124Z,106.40
2023-01-01T02:39:24.567Z,103.56
2023-01-01T02:44:33.741Z,186.10
2023-01-01T02:49:42.523Z,146.64
2023-01-01T02:54:51.449Z,146.41
2023-01-01T02:59:59.658Z,96.43
2023-01-01T03:05:08.282Z,113.46
2023-01-01T03:10:16.630Z,122.89
2023-01-01T03:15:25.100Z,137.82
2023-01-01T03:20:33.318Z,146.35
2023-01-01T03:25:42.359Z,155.90
2023-01-01T03:30:50.869Z,113.10
2023-01-01T03:35:59.355Z,110.01
2023-01-01T03:41:07.606Z,111.30
2023-01-01T03:46:16.169Z,105.63
2023-01-01T03:51:24.358Z,119.27
2023-01-01T03:56:33.151Z,85.39
2023-01-01T04:01:41.500Z,89.84
2023-01-01T04:06:50.185Z,118.17
2023-01-01T04:11:58.493Z,135.09
2023-01-01T04:17:07.523Z,105.01
2023-01-01T04:22:16.164Z,106.75
2023-01-01T04:27:25.138Z,85.22
2023-01-01T04:32:33.953Z,107.56
2023-01-01T04:37:42.783Z,133.43
2023-01-01T04:42:51.110Z,102.97
2023-01-01T04:48:00.127Z,116.57
2023-01-01T04:53:08.369Z,106.58
2023-01-01T04:58:16.885Z,109.44
2023-01-01T05:03:25.633Z,122.83
2023-01-01T05:08:34.750Z,129.15
2023-01-01T05:13:43.582Z,89.26
2023-01-01T05:18:52.331Z,88.51
2023-01-01T05:24:00.922Z,92.70
2023-01-01T05:29:16.047Z,187.56
2023-01-01T05:34:17.719Z,124.86
2023-01-01T05:39:26.481Z,108.67
2023-01-01T05:44:35.199Z,100.92
2023-01-01T05:49:43.943Z,216.88
2023-01-01T05:54:52.263Z,103.53
2023-01-01T06:00:01.206Z,215.20
2023-01-01T06:05:09.714Z,280.80
2023-01-01T06:10:18.541Z,242.74
2023-01-01T06:15:27.020Z,182.23
2023-01-01T06:20:35.560Z,146.23
2023-01-01T06:25:44.279Z,265.27
2023-01-01T06:30:52.874Z,284.19
2023-01-01T06:36:01.143Z,282.93
2023-01-01T06:41:10.122Z,192.24
2023-01-01T06:46:18.818Z,152.79
2023-01-01T06:51:27.854Z,192.61
2023-01-01T06:56:36.512Z,95.00
2023-01-01T07:01:45.485Z,104.07
2023-01-01T07:06:54.328Z,155.38
2023-01-01T07:12:03.168Z,137.43
2023-01-01T07:17:12.071Z,105.31
2023-01-01T07:22:21.056Z,101.18
2023-01-01T07:27:29.686Z,86.68
2023-01-01T07:32:38.738Z,74.58
2023-01-01T07:37:47.471Z,69.97
2023-01-01T07:42:56.514Z,60.22
2023-01-01T07:48:05.309Z,71.42
2023-01-01T07:53:14.314Z,65.02
2023-01-01T07:58:22.780Z,71.61
2023-01-01T08:03:32.250Z,73.64
2023-01-01T08:08:40.779Z,61.38
2023-01-01T08:13:50.183Z,69.01
2023-01-01T08:18:58.618Z,66.42
2023-01-01T08:24:06.857Z,50.37
2023-01-01T08:29:15.369Z,42.90
2023-01-01T08:34:24.049Z,46.84
2023-01-01T08:39:32.487Z,52.32
2023-01-01T08:44:41.676Z,41.69
2023-01-01T08:49:50.241Z,43.11
2023-01-01T08:54:59.030Z,33.91
2023-01-01T09:00:07.234Z,33.58
2023-01-01T09:05:15.820Z,41.78
2023-01-01T09:10:24.217Z,69.36
2023-01-01T09:15:33.121Z,158.10
2023-01-01T09:20:41.744Z,196.40
2023-01-01T09:25:50.695Z,76.65
2023-01-01T09:30:59.651Z,27.90
2023-01-01T09:36:08.175Z,22.87
2023-01-01T09:41:16.302Z,23.33
2023-01-01T09:46:31.171Z,35.28
2023-01-01T09:51:32.817Z,27.76
2023-01-01T09:56:41.989Z,16.96
2023-01-01T10:01:50.577Z,13.88
2023-01-01T10:06:59.344Z,13.37
2023-01-01T10:12:07.470Z,12.67
2023-01-01T10:17:16.191Z,11.95
2023-01-01T10:22:24.590Z,12.04
2023-01-01T10:27:33.362Z,12.97
2023-01-01T10:32:41.939Z,11.52
2023-01-01T10:37:51.166Z,11.22
2023-01-01T10:42:59.780Z,10.02
2023-01-01T10:48:08.606Z,9.77
2023-01-01T10:53:16.804Z,9.59
2023-01-01T10:58:25.805Z,9.77
2023-01-01T11:03:34.381Z,9.90
2023-01-01T11:08:43.084Z,10.78
2023-01-01T11:13:51.487Z,9.71
2023-01-01T11:19:00.142Z,10.26
2023-01-01T11:24:08.821Z,10.30
2023-01-01T11:29:17.146Z,10.84
2023-01-01T11:34:25.571Z,10.72
2023-01-01T11:39:34.430Z,11.27
2023-01-01T11:44:42.585Z,11.72
2023-01-01T11:49:51.141Z,11.70
2023-01-01T11:54:59.599Z,11.39
2023-01-01T12:00:09.268Z,11.37
2023-01-01T12:05:17.582Z,11.28
2023-01-01T12:10:26.488Z,11.74
2023-01-01T12:15:35.161Z,11.49
2023-01-01T12:20:44.119Z,11.02
2023-01-01T12:25:52.551Z,14.87
2023-01-01T12:31:01.630Z,13.33
2023-01-01T12:36:10.265Z,12.42
2023-01-01T12:41:18.681Z,16.65
2023-01-01T12:46:27.113Z,15.53
2023-01-01T12:51:35.758Z,18.77
2023-01-01T12:56:44.479Z,15.77
2023-01-01T13:01:53.043Z,20.08
2023-01-01T13:07:01.395Z,16.05
2023-01-01T13:12:10.100Z,14.61
2023-01-01T13:17:18.515Z,20.37
2023-01-01T13:22:26.900Z,18.63
2023-01-01T13:27:35.411Z,18.04
2023-01-01T13:32:44.149Z,13.49
2023-01-01T13:37:52.691Z,14.50
2023-01-01T13:43:04.246Z,11.89
2023-01-01T13:48:09.254Z,11.15
2023-01-01T13:53:17.410Z,11.34
2023-01-01T13:58:25.766Z,12.17
2023-01-01T14:03:34.448Z,12.56
2023-01-01T14:08:42.754Z,11.28
2023-01-01T14:13:51.145Z,12.30
2023-01-01T14:18:59.262Z,12.33
2023-01-01T14:24:07.570Z,15.62
2023-01-01T14:29:15.913Z,21.47
2023-01-01T14:34:24.893Z,16.95
2023-01-01T14:39:33.291Z,15.02
2023-01-01T14:44:41.809Z,14.11
2023-01-01T14:49:50.221Z,13.27
2023-01-01T14:54:58.336Z,18.15
2023-01-01T15:00:06.833Z,17.52
2023-01-01T15:05:15.706Z,19.42
2023-01-01T15:10:24.107Z,21.74
2023-01-01T15:15:32.629Z,30.24
2023-01-01T15:20:41.187Z,25.77
2023-01-01T15:25:49.740Z,35.48
2023-01-01T15:30:57.984Z,26.60
2023-01-01T15:36:06.825Z,20.80
2023-01-01T15:41:15.233Z,20.91
2023-01-01T15:46:27.450Z,17.50
2023-01-01T15:51:31.491Z,17.31
2023-01-01T15:56:40.126Z,12.35
2023-01-01T16:01:48.435Z,13.15
2023-01-01T16:06:56.744Z,15.57
2023-01-01T16:12:05.015Z,16.10
2023-01-01T16:17:13.641Z,15.09
2023-01-01T16:22:22.104Z,17.04
2023-01-01T16:27:31.109Z,14.74
2023-01-01T16:32:39.370Z,13.54
2023-01-01T16:37:47.691Z,12.59
2023-01-01T16:42:56.114Z,12.64
2023-01-01T16:48:04.509Z,27.06
2023-01-01T16:53:12.621Z,19.76
2023-01-01T16:58:48.669Z,12.54
2023-01-01T17:03:29.835Z,11.80
2023-01-01T17:08:38.486Z,13.20
2023-01-01T17:13:46.987Z,15.12
2023-01-01T17:19:14.579Z,17.77
2023-01-01T17:24:03.397Z,19.63
2023-01-01T17:29:12.140Z,19.21
2023-01-01T17:34:20.617Z,20.11
2023-01-01T17:39:29.719Z,20.20
2023-01-01T17:44:37.918Z,23.57
2023-01-01T17:49:46.692Z,21.63
2023-01-01T17:54:55.088Z,25.53
2023-01-01T18:00:04.230Z,27.57
2023-01-01T18:05:12.417Z,34.78
2023-01-01T18:10:21.062Z,33.43
2023-01-01T18:15:30.256Z,31.95
2023-01-01T18:20:39.397Z,29.46
2023-01-01T18:25:47.870Z,20.46
2023-01-01T18:30:56.994Z,16.94
2023-01-01T18:36:05.806Z,17.68
2023-01-01T18:41:14.652Z,13.79
2023-01-01T18:46:23.016Z,17.21
2023-01-01T18:51:32.073Z,15.13
2023-01-01T18:56:40.722Z,14.14
2023-01-01T19:01:49.753Z,15.01
2023-01-01T19:06:58.271Z,14.73
2023-01-01T19:12:07.021Z,12.17
2023-01-01T19:17:15.631Z,11.23
2023-01-01T19:22:24.585Z,9.98
2023-01-01T19:27:32.893Z,8.09
2023-01-01T19:32:42.003Z,8.03
2023-01-01T19:37:50.338Z,8.56
2023-01-01T19:42:59.323Z,8.68
2023-01-01T19:48:07.651Z,7.07
2023-01-01T19:53:16.560Z,7.75
2023-01-01T19:58:25.187Z,8.51
2023-01-01T20:03:53.441Z,8.19
2023-01-01T20:08:41.815Z,6.57
2023-01-01T20:13:50.709Z,7.23
2023-01-01T20:18:59.152Z,7.25
2023-01-01T20:24:07.999Z,6.94
2023-01-01T20:29:16.303Z,6.80
2023-01-01T20:34:25.204Z,7.74
2023-01-01T20:39:33.658Z,7.66
2023-01-01T20:44:42.235Z,8.17
2023-01-01T20:49:50.878Z,7.14
2023-01-01T20:54:59.846Z,8.21
2023-01-01T21:00:07.892Z,8.91
2023-01-01T21:05:16.400Z,7.09
2023-01-01T21:10:25.046Z,8.02
2023-01-01T21:15:33.701Z,6.30
2023-01-01T21:20:42.018Z,7.77
2023-01-01T21:25:52.099Z,7.47
2023-01-01T21:30:58.736Z,6.78
2023-01-01T21:36:10.700Z,7.56
2023-01-01T21:41:08.926Z,8.42
2023-01-01T21:46:17.607Z,7.70
2023-01-01T21:51:25.995Z,6.93
2023-01-01T21:56:34.438Z,7.35
2023-01-01T22:01:42.812Z,7.02
2023-01-01T22:06:51.276Z,6.77
2023-01-01T22:11:59.650Z,5.85
2023-01-01T22:17:09.012Z,6.48
2023-01-01T22:22:17.314Z,6.90
2023-01-01T22:27:25.977Z,7.19
2023-01-01T22:32:34.213Z,6.99
2023-01-01T22:37:42.990Z,7.44
2023-01-01T22:42:54.200Z,6.55
2023-01-01T22:47:53.150Z,5.75
2023-01-01T22:53:02.223Z,6.32
2023-01-01T22:58:10.923Z,5.18
2023-01-01T23:03:19.392Z,5.44
2023-01-01T23:08:28.027Z,6.59
2023-01-01T23:13:36.415Z,7.06
2023-01-01T23:18:45.068Z,5.93
2023-01-01T23:23:53.732Z,6.95
2023-01-01T23:29:02.502Z,8.19
2023-01-01T23:34:11.082Z,7.07
2023-01-01T23:39:19.604Z,8.67
2023-01-01T23:44:27.979Z,6.15
2023-01-01T23:49:36.831Z,7.52
2023-01-01T23:54:45.417Z,6.55
2023-01-01T23:59:54.260Z,6.58
